createdAt,value
2017-09-08T00:00:32.001Z,11.10
2017-09-08T00:02:59.705Z,11.10
2017-09-08T00:05:28.160Z,11.10
2017-09-08T00:07:55.802Z,11.00
2017-09-08T00:10:23.518Z,11.00
2017-09-08T00:12:51.947Z,10.90
2017-09-08T00:15:19.605Z,10.90
2017-09-08T00:17:47.372Z,10.80
2017-09-08T00:20:15.048Z,10.80
2017-09-08T00:22:42.673Z,10.70
2017-09-08T00:25:10.373Z,10.60
2017-09-08T00:27:38.862Z,10.60
2017-09-08T00:30:07.321Z,10.50
2017-09-08T00:32:35.073Z,10.50
2017-09-08T00:35:02.710Z,10.40
2017-09-08T00:37:30.364Z,10.50
2017-09-08T00:39:58.036Z,10.50
2017-09-08T00:42:25.750Z,10.40
2017-09-08T00:44:54.197Z,10.40
2017-09-08T00:47:22.062Z,10.30
2017-09-08T00:49:49.673Z,10.30
2017-09-08T00:52:18.087Z,10.20
2017-09-08T00:54:45.807Z,10.20
2017-09-08T00:57:13.479Z,10.20
2017-09-08T00:59:41.140Z,10.20
2017-09-08T01:02:08.892Z,10.20
2017-09-08T01:04:37.364Z,10.30
2017-09-08T01:07:05.775Z,10.30
2017-09-08T01:09:33.564Z,10.40
2017-09-08T01:12:01.229Z,10.40
2017-09-08T01:14:28.905Z,10.50
2017-09-08T01:16:56.721Z,10.50
2017-09-08T01:19:24.384Z,10.40
2017-09-08T01:21:52.043Z,10.40
2017-09-08T01:24:19.720Z,10.40
2017-09-08T01:26:47.372Z,10.30
2017-09-08T01:29:14.998Z,10.30
2017-09-08T01:31:43.467Z,10.10
2017-09-08T01:34:11.924Z,10.10
2017-09-08T01:36:39.545Z,10.10
2017-09-08T01:39:08.013Z,10.10
2017-09-08T01:41:35.644Z,10.00
2017-09-08T01:44:03.288Z,10.10
2017-09-08T01:46:30.997Z,10.00
2017-09-08T01:48:58.630Z,10.00
2017-09-08T01:51:27.041Z,9.90
2017-09-08T01:53:54.722Z,9.90
2017-09-08T01:56:22.375Z,9.90
2017-09-08T01:58:50.019Z,9.80
2017-09-08T02:01:17.724Z,9.80
2017-09-08T02:03:45.371Z,9.70
2017-09-08T02:06:13.020Z,9.70
2017-09-08T02:08:40.684Z,9.70
2017-09-08T02:11:08.341Z,9.70
2017-09-08T02:13:35.960Z,9.70
2017-09-08T02:16:04.451Z,9.70
2017-09-08T02:18:32.056Z,9.70
2017-09-08T02:20:59.728Z,9.70
2017-09-08T02:23:27.387Z,9.70
2017-09-08T02:25:55.012Z,9.70
2017-09-08T02:28:22.662Z,9.60
2017-09-08T02:30:50.351Z,9.60
2017-09-08T02:33:18.023Z,9.60
2017-09-08T02:35:45.648Z,9.60
2017-09-08T02:38:13.324Z,9.60
2017-09-08T02:40:40.951Z,9.60
2017-09-08T02:43:08.608Z,9.60
2017-09-08T02:45:36.282Z,9.60
2017-09-08T02:48:03.901Z,9.50
2017-09-08T02:50:32.305Z,9.50
2017-09-08T02:53:00.049Z,9.50
2017-09-08T02:55:28.451Z,9.50
2017-09-08T02:57:56.861Z,9.50
2017-09-08T03:00:24.624Z,9.50
2017-09-08T03:02:52.328Z,9.40
2017-09-08T03:05:20.720Z,9.30
2017-09-08T03:07:48.456Z,9.30
2017-09-08T03:10:16.849Z,9.30
2017-09-08T03:12:45.231Z,9.30
2017-09-08T03:15:12.899Z,9.20
2017-09-08T03:17:40.535Z,9.20
2017-09-08T03:20:08.941Z,9.20
2017-09-08T03:22:36.679Z,9.20
2017-09-08T03:25:05.068Z,9.20
2017-09-08T03:27:32.753Z,9.20
2017-09-08T03:30:00.431Z,9.20
2017-09-08T03:32:28.054Z,9.20
2017-09-08T03:34:55.674Z,9.20
2017-09-08T03:37:23.376Z,9.20
2017-09-08T03:39:51.000Z,9.20
2017-09-08T03:42:18.666Z,9.20
2017-09-08T03:44:47.247Z,9.10
2017-09-08T03:47:15.673Z,9.20
2017-09-08T03:49:43.296Z,9.20
2017-09-08T03:52:11.759Z,9.30
2017-09-08T03:54:40.156Z,9.30
2017-09-08T03:57:08.556Z,9.40
2017-09-08T03:59:36.224Z,9.40
2017-09-08T04:02:03.882Z,9.40
2017-09-08T04:04:31.500Z,9.40
2017-09-08T04:06:59.948Z,9.30
2017-09-08T04:09:27.576Z,9.30
2017-09-08T04:11:55.250Z,9.30
2017-09-08T04:14:22.935Z,9.30
2017-09-08T04:16:50.617Z,9.30
2017-09-08T04:19:18.289Z,9.20
2017-09-08T04:21:45.997Z,9.20
2017-09-08T04:24:13.617Z,9.30
2017-09-08T04:26:42.034Z,9.20
2017-09-08T04:29:09.805Z,9.20
2017-09-08T04:31:37.480Z,9.30
2017-09-08T04:34:05.105Z,9.30
2017-09-08T04:36:32.772Z,9.20
2017-09-08T04:39:00.411Z,9.30
2017-09-08T04:41:28.045Z,9.20
2017-09-08T04:43:56.582Z,9.30
2017-09-08T04:46:24.199Z,9.30
2017-09-08T04:48:51.843Z,9.30
2017-09-08T04:51:20.349Z,9.30
2017-09-08T04:53:47.988Z,9.30
2017-09-08T04:56:16.448Z,9.30
2017-09-08T04:58:44.968Z,9.30
2017-09-08T05:01:12.620Z,9.30
2017-09-08T05:03:40.988Z,9.30
2017-09-08T05:06:08.780Z,9.30
2017-09-08T05:08:36.387Z,9.30
2017-09-08T05:11:04.303Z,9.30
2017-09-08T05:13:31.960Z,9.40
2017-09-08T05:15:59.667Z,9.40
2017-09-08T05:18:27.270Z,9.50
2017-09-08T05:20:55.792Z,9.60
2017-09-08T05:23:23.390Z,9.50
2017-09-08T05:25:51.076Z,9.60
2017-09-08T05:28:19.693Z,9.60
2017-09-08T05:30:47.342Z,9.70
2017-09-08T05:33:14.952Z,9.70
2017-09-08T05:35:43.479Z,9.70
2017-09-08T05:38:11.100Z,9.70
2017-09-08T05:40:39.520Z,9.90
2017-09-08T05:43:07.192Z,9.90
2017-09-08T05:45:34.853Z,10.00
2017-09-08T05:48:02.461Z,10.00
2017-09-08T05:50:30.173Z,10.10
2017-09-08T05:52:57.792Z,10.10
2017-09-08T05:55:25.442Z,10.20
2017-09-08T05:57:53.884Z,10.40
2017-09-08T06:00:21.504Z,10.40
2017-09-08T06:02:49.155Z,10.60
2017-09-08T06:05:16.952Z,10.80
2017-09-08T06:07:44.619Z,11.00
2017-09-08T06:10:12.256Z,11.20
2017-09-08T06:12:39.932Z,11.40
2017-09-08T06:15:07.572Z,11.60
2017-09-08T06:17:35.313Z,11.80
2017-09-08T06:20:03.088Z,12.00
2017-09-08T06:22:30.723Z,12.20
2017-09-08T06:24:59.178Z,12.60
2017-09-08T06:27:26.892Z,12.60
2017-09-08T06:29:54.519Z,12.80
2017-09-08T06:32:22.947Z,13.30
2017-09-08T06:34:50.627Z,13.30
2017-09-08T06:37:18.330Z,13.60
2017-09-08T06:39:45.951Z,13.80
2017-09-08T06:42:13.774Z,13.90
2017-09-08T06:44:41.427Z,14.10
2017-09-08T06:47:09.066Z,14.30
2017-09-08T06:49:37.504Z,14.60
2017-09-08T06:52:05.211Z,14.60
2017-09-08T06:54:33.596Z,15.00
2017-09-08T06:57:02.100Z,15.20
2017-09-08T06:59:29.723Z,15.10
2017-09-08T07:01:58.131Z,15.70
2017-09-08T07:04:25.924Z,15.60
2017-09-08T07:06:53.647Z,15.70
2017-09-08T07:09:21.299Z,15.80
2017-09-08T07:11:49.617Z,15.90
2017-09-08T07:14:17.275Z,15.90
2017-09-08T07:16:44.973Z,16.10
2017-09-08T07:19:12.632Z,16.20
2017-09-08T07:21:40.315Z,16.30
2017-09-08T07:24:08.716Z,16.60
2017-09-08T07:26:36.431Z,16.60
2017-09-08T07:29:04.104Z,16.70
2017-09-08T07:31:32.512Z,16.90
2017-09-08T07:34:00.203Z,16.90
2017-09-08T07:36:27.848Z,17.10
2017-09-08T07:38:55.477Z,17.20
2017-09-08T07:41:23.155Z,17.30
2017-09-08T07:43:50.813Z,17.50
2017-09-08T07:46:18.528Z,17.50
2017-09-08T07:48:46.289Z,17.40
2017-09-08T07:51:13.939Z,17.50
2017-09-08T07:53:41.639Z,17.70
2017-09-08T07:56:09.324Z,17.90
2017-09-08T07:58:37.007Z,18.10
2017-09-08T08:01:04.622Z,18.20
2017-09-08T08:03:32.332Z,18.40
2017-09-08T08:05:59.966Z,18.50
2017-09-08T08:08:27.576Z,18.70
2017-09-08T08:10:55.445Z,18.70
2017-09-08T08:13:23.835Z,18.60
2017-09-08T08:15:51.444Z,18.60
2017-09-08T08:18:19.112Z,18.60
2017-09-08T08:20:46.795Z,18.60
2017-09-08T08:23:14.425Z,18.80
2017-09-08T08:25:42.163Z,19.00
2017-09-08T08:28:09.775Z,19.00
2017-09-08T08:30:37.439Z,19.20
2017-09-08T08:33:05.112Z,19.20
2017-09-08T08:35:33.538Z,19.10
2017-09-08T08:38:01.203Z,19.10
2017-09-08T08:40:28.965Z,19.10
2017-09-08T08:42:56.589Z,19.20
2017-09-08T08:45:24.212Z,19.10
2017-09-08T08:47:51.876Z,19.20
2017-09-08T08:50:19.492Z,19.50
2017-09-08T08:52:47.143Z,19.70
2017-09-08T08:55:14.925Z,19.80
2017-09-08T08:57:42.607Z,19.50
2017-09-08T09:00:10.274Z,19.70
2017-09-08T09:02:37.967Z,19.60
2017-09-08T09:05:05.605Z,19.70
2017-09-08T09:07:34.032Z,20.00
2017-09-08T09:10:01.711Z,20.00
2017-09-08T09:12:29.351Z,20.30
2017-09-08T09:14:56.971Z,20.30
2017-09-08T09:17:25.532Z,20.20
2017-09-08T09:19:53.162Z,20.10
2017-09-08T09:22:20.803Z,19.90
2017-09-08T09:24:48.487Z,19.90
2017-09-08T09:27:16.163Z,19.70
2017-09-08T09:29:43.784Z,19.50
2017-09-08T09:32:11.464Z,19.30
2017-09-08T09:34:39.127Z,19.20
2017-09-08T09:37:06.777Z,19.10
2017-09-08T09:39:34.447Z,19.10
2017-09-08T09:42:02.090Z,19.10
2017-09-08T09:44:29.780Z,19.10
2017-09-08T09:46:57.577Z,19.20
2017-09-08T09:49:25.991Z,18.80
2017-09-08T09:51:53.621Z,18.80
2017-09-08T09:54:22.153Z,18.60
2017-09-08T09:56:49.776Z,18.60
2017-09-08T09:59:17.465Z,18.50
2017-09-08T10:01:45.229Z,18.50
2017-09-08T10:04:12.972Z,18.50
2017-09-08T10:06:40.591Z,18.50
2017-09-08T10:09:09.078Z,18.50
2017-09-08T10:11:37.480Z,18.50
2017-09-08T10:14:05.105Z,18.50
2017-09-08T10:16:32.799Z,18.30
2017-09-08T10:19:00.449Z,18.20
2017-09-08T10:21:28.091Z,18.20
2017-09-08T10:23:56.681Z,18.00
2017-09-08T10:26:25.066Z,18.00
2017-09-08T10:28:53.488Z,18.10
2017-09-08T10:31:21.144Z,18.10
2017-09-08T10:33:48.774Z,18.10
2017-09-08T10:36:16.403Z,18.00
2017-09-08T10:38:44.103Z,18.00
2017-09-08T10:41:11.752Z,18.00
2017-09-08T10:43:39.425Z,18.00
2017-09-08T10:46:07.118Z,18.00
2017-09-08T10:48:34.811Z,18.00
2017-09-08T10:51:02.448Z,18.10
2017-09-08T10:53:30.139Z,18.10
2017-09-08T10:55:57.755Z,18.20
2017-09-08T10:58:25.370Z,18.30
2017-09-08T11:00:53.909Z,18.40
2017-09-08T11:03:21.516Z,18.40
2017-09-08T11:05:49.212Z,18.40
2017-09-08T11:08:16.893Z,18.50
2017-09-08T11:10:44.514Z,18.70
2017-09-08T11:13:12.127Z,18.80
2017-09-08T11:15:39.938Z,18.90
2017-09-08T11:18:07.557Z,19.10
2017-09-08T11:20:35.182Z,19.20
2017-09-08T11:23:02.890Z,19.10
2017-09-08T11:25:30.508Z,19.00
2017-09-08T11:27:58.163Z,18.90
2017-09-08T11:30:25.850Z,18.90
2017-09-08T11:32:59.168Z,18.90
2017-09-08T11:35:32.585Z,18.90
2017-09-08T11:38:01.002Z,19.00
2017-09-08T11:40:28.638Z,19.00
2017-09-08T11:42:56.368Z,19.20
2017-09-08T11:45:24.001Z,19.20
2017-09-08T11:47:52.403Z,19.10
2017-09-08T11:50:20.100Z,19.10
2017-09-08T11:52:47.710Z,18.90
2017-09-08T11:55:16.103Z,19.10
2017-09-08T11:57:43.839Z,19.10
2017-09-08T12:00:12.227Z,19.30
2017-09-08T12:02:40.614Z,19.40
2017-09-08T12:05:08.297Z,19.30
2017-09-08T12:07:35.948Z,19.40
2017-09-08T12:10:03.615Z,19.30
2017-09-08T12:12:31.321Z,19.20
2017-09-08T12:14:58.936Z,19.20
2017-09-08T12:17:26.603Z,19.30
2017-09-08T12:19:54.369Z,19.10
2017-09-08T12:22:22.076Z,19.10
2017-09-08T12:24:50.489Z,19.30
2017-09-08T12:27:18.278Z,19.30
2017-09-08T12:29:45.908Z,19.30
2017-09-08T12:32:13.537Z,19.20
2017-09-08T12:34:41.956Z,18.70
2017-09-08T12:37:09.589Z,18.70
2017-09-08T12:39:37.220Z,18.60
2017-09-08T12:42:05.008Z,18.50
2017-09-08T12:44:33.389Z,18.70
2017-09-08T12:47:01.040Z,18.70
2017-09-08T12:49:29.472Z,19.00
2017-09-08T12:51:57.147Z,19.00
2017-09-08T12:54:24.789Z,19.00
2017-09-08T12:56:52.472Z,19.00
2017-09-08T12:59:20.101Z,19.00
2017-09-08T13:01:47.787Z,18.90
2017-09-08T13:04:15.477Z,19.00
2017-09-08T13:06:43.921Z,19.00
2017-09-08T13:09:11.550Z,19.00
2017-09-08T13:11:39.233Z,19.10
2017-09-08T13:14:06.892Z,19.20
2017-09-08T13:16:34.512Z,19.20
2017-09-08T13:19:02.263Z,19.20
2017-09-08T13:21:30.709Z,19.20
2017-09-08T13:23:58.356Z,19.20
2017-09-08T13:26:26.020Z,19.00
2017-09-08T13:28:53.675Z,19.00
2017-09-08T13:31:21.297Z,18.90
2017-09-08T13:33:49.079Z,19.00
2017-09-08T13:36:16.700Z,19.00
2017-09-08T13:38:45.163Z,19.20
2017-09-08T13:41:13.757Z,19.20
2017-09-08T13:43:42.176Z,19.70
2017-09-08T13:46:09.795Z,19.70
2017-09-08T13:48:37.640Z,19.70
2017-09-08T13:51:06.464Z,19.70
2017-09-08T13:53:34.149Z,19.60
2017-09-08T13:56:01.929Z,19.50
2017-09-08T13:58:29.560Z,19.50
2017-09-08T14:00:57.178Z,19.50
2017-09-08T14:03:24.915Z,19.50
2017-09-08T14:05:52.533Z,19.60
2017-09-08T14:08:20.223Z,19.60
2017-09-08T14:10:47.985Z,19.50
2017-09-08T14:13:15.623Z,19.50
2017-09-08T14:15:43.242Z,19.50
2017-09-08T14:18:10.967Z,19.60
2017-09-08T14:20:38.664Z,19.60
2017-09-08T14:23:06.296Z,19.50
2017-09-08T14:25:34.031Z,19.40
2017-09-08T14:28:01.645Z,19.30
2017-09-08T14:30:29.295Z,19.30
2017-09-08T14:32:56.991Z,19.20
2017-09-08T14:35:25.415Z,19.10
2017-09-08T14:37:53.036Z,19.10
2017-09-08T14:40:20.775Z,19.10
2017-09-08T14:42:49.209Z,19.10
2017-09-08T14:45:16.859Z,19.10
2017-09-08T14:47:44.547Z,19.00
2017-09-08T14:50:12.305Z,18.90
2017-09-08T14:52:39.937Z,18.90
2017-09-08T14:55:07.613Z,18.90
2017-09-08T14:57:35.240Z,18.90
2017-09-08T15:00:02.856Z,19.00
2017-09-08T15:02:30.750Z,18.90
2017-09-08T15:04:59.161Z,18.80
2017-09-08T15:07:26.786Z,18.80
2017-09-08T15:09:55.249Z,18.90
2017-09-08T15:12:22.864Z,18.90
2017-09-08T15:14:50.556Z,18.90
2017-09-08T15:17:18.243Z,18.80
2017-09-08T15:19:46.643Z,18.70
2017-09-08T15:22:14.252Z,18.60
2017-09-08T15:24:41.935Z,18.60
2017-09-08T15:27:10.315Z,18.60
2017-09-08T15:29:38.747Z,18.60
2017-09-08T15:32:06.398Z,18.50
2017-09-08T15:34:34.023Z,18.60
2017-09-08T15:37:02.386Z,18.50
2017-09-08T15:39:30.822Z,18.50
2017-09-08T15:41:58.431Z,18.50
2017-09-08T15:44:26.866Z,18.60
2017-09-08T15:46:54.611Z,18.60
2017-09-08T15:49:22.276Z,18.50
2017-09-08T15:51:49.880Z,18.50
2017-09-08T15:54:17.578Z,18.50
2017-09-08T15:56:45.216Z,18.40
2017-09-08T15:59:12.834Z,18.40
2017-09-08T16:01:40.524Z,18.30
2017-09-08T16:04:08.135Z,18.30
2017-09-08T16:06:35.794Z,18.30
2017-09-08T16:09:03.541Z,18.30
2017-09-08T16:11:31.202Z,18.30
2017-09-08T16:13:58.816Z,18.20
2017-09-08T16:16:26.544Z,18.10
2017-09-08T16:18:54.166Z,18.00
2017-09-08T16:21:21.788Z,18.00
2017-09-08T16:23:49.544Z,18.00
2017-09-08T16:26:17.164Z,18.00
2017-09-08T16:28:44.805Z,18.00
2017-09-08T16:31:12.485Z,18.00
2017-09-08T16:33:40.159Z,18.00
2017-09-08T16:36:07.807Z,17.90
2017-09-08T16:38:35.508Z,17.90
2017-09-08T16:41:03.133Z,17.80
2017-09-08T16:43:30.752Z,17.70
2017-09-08T16:45:59.288Z,17.60
2017-09-08T16:48:26.948Z,17.60
2017-09-08T16:50:54.559Z,17.60
2017-09-08T16:53:23.155Z,17.50
2017-09-08T16:55:50.835Z,17.40
2017-09-08T16:58:18.462Z,17.40
2017-09-08T17:00:46.903Z,17.20
2017-09-08T17:03:14.549Z,17.20
2017-09-08T17:05:42.206Z,17.10
2017-09-08T17:08:09.929Z,17.00
2017-09-08T17:10:37.607Z,17.00
2017-09-08T17:13:05.231Z,16.90
2017-09-08T17:15:32.923Z,16.80
2017-09-08T17:18:00.543Z,16.70
2017-09-08T17:20:28.275Z,16.50
2017-09-08T17:22:56.002Z,16.40
2017-09-08T17:25:23.797Z,16.20
2017-09-08T17:27:51.471Z,16.10
2017-09-08T17:30:19.160Z,16.00
2017-09-08T17:32:47.552Z,15.70
2017-09-08T17:35:15.204Z,15.80
2017-09-08T17:37:43.644Z,15.50
2017-09-08T17:40:11.313Z,15.50
2017-09-08T17:42:38.939Z,15.40
2017-09-08T17:45:06.624Z,15.30
2017-09-08T17:47:34.275Z,15.20
2017-09-08T17:50:01.939Z,15.10
2017-09-08T17:52:29.624Z,15.10
2017-09-08T17:54:58.036Z,14.80
2017-09-08T17:57:25.707Z,14.80
2017-09-08T17:59:53.404Z,14.70
2017-09-08T18:02:21.076Z,14.70
2017-09-08T18:04:48.744Z,14.60
2017-09-08T18:07:17.240Z,14.50
2017-09-08T18:09:45.624Z,14.40
2017-09-08T18:12:13.276Z,14.40
2017-09-08T18:14:41.721Z,14.30
2017-09-08T18:17:09.347Z,14.30
2017-09-08T18:19:36.977Z,14.20
2017-09-08T18:22:05.449Z,14.10
2017-09-08T18:24:33.929Z,14.00
2017-09-08T18:27:02.321Z,13.90
2017-09-08T18:29:29.992Z,13.90
2017-09-08T18:31:57.621Z,13.80
2017-09-08T18:34:26.079Z,13.70
2017-09-08T18:36:53.771Z,13.70
2017-09-08T18:39:22.201Z,13.60
2017-09-08T18:41:49.829Z,13.50
2017-09-08T18:44:17.499Z,13.50
2017-09-08T18:46:45.148Z,13.40
2017-09-08T18:49:12.776Z,13.40
2017-09-08T18:51:41.228Z,13.30
2017-09-08T18:54:12.487Z,13.30
2017-09-08T18:56:40.700Z,13.30
2017-09-08T18:59:08.864Z,13.20
2017-09-08T19:01:36.903Z,13.20
2017-09-08T19:04:05.364Z,13.00
2017-09-08T19:06:33.016Z,13.00
2017-09-08T19:09:00.686Z,13.00
2017-09-08T19:11:28.413Z,12.90
2017-09-08T19:13:56.044Z,12.90
2017-09-08T19:16:24.477Z,12.80
2017-09-08T19:18:52.176Z,12.80
2017-09-08T19:21:19.840Z,12.70
2017-09-08T19:23:47.479Z,12.70
2017-09-08T19:26:15.199Z,12.70
2017-09-08T19:28:43.596Z,12.60
2017-09-08T19:31:11.288Z,12.60
2017-09-08T19:33:39.760Z,12.60
2017-09-08T19:36:07.403Z,12.50
2017-09-08T19:38:35.038Z,12.50
2017-09-08T19:41:02.768Z,12.50
2017-09-08T19:43:30.480Z,12.40
2017-09-08T19:45:58.448Z,12.40
2017-09-08T19:48:26.353Z,12.40
2017-09-08T19:50:54.145Z,12.30
2017-09-08T19:53:22.037Z,12.30
2017-09-08T19:55:49.981Z,12.30
2017-09-08T19:58:18.070Z,12.30
2017-09-08T20:00:45.887Z,12.20
2017-09-08T20:03:14.428Z,12.20
2017-09-08T20:05:42.365Z,12.20
2017-09-08T20:08:10.012Z,12.20
2017-09-08T20:10:37.701Z,12.10
2017-09-08T20:13:05.518Z,12.20
2017-09-08T20:15:34.074Z,12.10
2017-09-08T20:18:02.075Z,12.10
2017-09-08T20:20:31.461Z,12.10
2017-09-08T20:22:59.198Z,12.00
2017-09-08T20:25:26.969Z,12.10
2017-09-08T20:27:54.636Z,12.00
2017-09-08T20:30:22.488Z,12.00
2017-09-08T20:32:50.948Z,12.00
2017-09-08T20:35:19.616Z,12.00
2017-09-08T20:37:47.330Z,12.00
2017-09-08T20:40:15.872Z,11.90
2017-09-08T20:42:43.658Z,11.90
2017-09-08T20:45:12.256Z,11.90
2017-09-08T20:47:40.852Z,11.90
2017-09-08T20:50:09.747Z,11.90
2017-09-08T20:52:37.668Z,11.80
2017-09-08T20:55:05.854Z,12.00
2017-09-08T20:57:34.601Z,11.90
2017-09-08T21:00:03.161Z,11.90
2017-09-08T21:02:30.864Z,11.90
2017-09-08T21:04:58.556Z,11.90
2017-09-08T21:07:27.128Z,11.90
2017-09-08T21:09:55.273Z,11.90
2017-09-08T21:12:22.985Z,11.90
2017-09-08T21:14:51.420Z,11.90
2017-09-08T21:17:19.193Z,11.90
2017-09-08T21:19:46.848Z,11.90
2017-09-08T21:22:14.530Z,11.80
2017-09-08T21:24:42.228Z,11.80
2017-09-08T21:27:09.853Z,11.70
2017-09-08T21:29:37.516Z,11.70
2017-09-08T21:32:05.999Z,11.60
2017-09-08T21:34:34.387Z,11.60
2017-09-08T21:37:02.057Z,11.60
2017-09-08T21:39:29.732Z,11.60
2017-09-08T21:41:57.361Z,11.50
2017-09-08T21:44:25.001Z,11.50
2017-09-08T21:46:52.693Z,11.50
2017-09-08T21:49:20.340Z,11.50
2017-09-08T21:51:48.728Z,11.40
2017-09-08T21:54:16.543Z,11.40
2017-09-08T21:56:44.159Z,11.40
2017-09-08T21:59:11.784Z,11.40
2017-09-08T22:01:39.475Z,11.30
2017-09-08T22:04:07.142Z,11.30
2017-09-08T22:06:34.816Z,11.30
2017-09-08T22:09:02.504Z,11.30
2017-09-08T22:11:30.169Z,11.30
2017-09-08T22:13:57.808Z,11.30
2017-09-08T22:16:25.508Z,11.30
2017-09-08T22:18:53.928Z,11.30
2017-09-08T22:21:21.585Z,11.30
2017-09-08T22:23:49.276Z,11.30
2017-09-08T22:26:16.928Z,11.30
2017-09-08T22:28:44.556Z,11.20
2017-09-08T22:31:12.272Z,11.20
2017-09-08T22:33:39.893Z,11.20
2017-09-08T22:36:07.508Z,11.10
2017-09-08T22:38:35.190Z,11.20
2017-09-08T22:41:03.659Z,11.20
2017-09-08T22:43:32.099Z,11.20
2017-09-08T22:45:59.816Z,11.10
2017-09-08T22:48:27.456Z,11.20
2017-09-08T22:50:55.848Z,11.20
2017-09-08T22:53:23.531Z,11.20
2017-09-08T22:55:52.030Z,11.20
2017-09-08T22:58:19.663Z,11.20
2017-09-08T23:00:47.351Z,11.20
2017-09-08T23:03:14.996Z,11.20
2017-09-08T23:05:42.660Z,11.20
2017-09-08T23:08:10.334Z,11.30
2017-09-08T23:10:37.971Z,11.20
2017-09-08T23:13:05.600Z,11.20
2017-09-08T23:15:34.130Z,11.20
2017-09-08T23:18:01.753Z,11.20
2017-09-08T23:20:29.439Z,11.20
2017-09-08T23:22:57.111Z,11.10
2017-09-08T23:25:24.740Z,11.10
2017-09-08T23:27:52.397Z,11.10
2017-09-08T23:30:20.086Z,11.00
2017-09-08T23:32:47.715Z,11.00
2017-09-08T23:35:15.327Z,11.00
2017-09-08T23:37:43.021Z,11.00
2017-09-08T23:40:11.411Z,10.90
2017-09-08T23:42:39.065Z,10.90
2017-09-08T23:45:06.865Z,10.90
2017-09-08T23:47:34.535Z,10.90
2017-09-08T23:50:02.164Z,10.90
2017-09-08T23:52:29.860Z,10.80
2017-09-08T23:54:57.475Z,10.80
2017-09-08T23:57:25.893Z,10.70
2017-09-08T23:59:53.575Z,10.70
